Terminal Aerodrome Forecast
Issued by NWS

Home | Current Version | Previous Version | Text Only | Print | Product List | Glossary On
Versions: 1 2 3 4 5 6 7 8 9 10 11 12 13 14 15 16 17 18 19 20 21 22 23 24 25 26 27 28
000
FTUS45 KLKN 041910 AAA
TAFELY
TAF AMD
KELY 041910Z 0419/0518 10012KT P6SM VCTS BKN100CB
      TEMPO 0421/0501 VRB20G35KT -TSRA SCT050CB OVC080
     FM050300 17010KT P6SM SCT050 BKN100=

USA.gov is the U.S. government's official web portal to all federal, state and local government web resources and services.